createdAt,value
2022-11-13T00:00:43.687Z,52.50
2022-11-13T00:03:10.174Z,52.78
2022-11-13T00:05:36.699Z,53.07
2022-11-13T00:08:03.294Z,53.29
2022-11-13T00:10:29.811Z,53.47
2022-11-13T00:12:56.350Z,53.45
2022-11-13T00:15:22.928Z,53.63
2022-11-13T00:17:49.398Z,53.40
2022-11-13T00:20:16.039Z,53.70
2022-11-13T00:22:42.592Z,53.36
2022-11-13T00:25:09.491Z,53.52
2022-11-13T00:27:36.154Z,53.65
2022-11-13T00:30:02.711Z,53.56
2022-11-13T00:32:29.246Z,53.61
2022-11-13T00:34:55.786Z,53.59
2022-11-13T00:37:22.277Z,53.72
2022-11-13T00:39:48.823Z,53.74
2022-11-13T00:42:15.521Z,53.91
2022-11-13T00:44:42.160Z,53.93
2022-11-13T00:47:08.664Z,54.12
2022-11-13T00:49:35.161Z,53.94
2022-11-13T00:52:03.159Z,54.28
2022-11-13T00:54:29.922Z,54.21
2022-11-13T00:56:56.386Z,51.56
2022-11-13T00:59:22.922Z,53.90
2022-11-13T01:01:49.463Z,53.95
2022-11-13T01:04:16.027Z,53.86
2022-11-13T01:06:42.588Z,53.64
2022-11-13T01:09:09.388Z,53.78
2022-11-13T01:11:35.835Z,51.43
2022-11-13T01:14:02.315Z,53.69
2022-11-13T01:16:29.588Z,53.75
2022-11-13T01:18:57.068Z,53.97
2022-11-13T01:21:26.590Z,54.04
2022-11-13T01:23:54.689Z,54.06
2022-11-13T01:26:24.276Z,54.13
2022-11-13T01:28:51.136Z,54.20
2022-11-13T01:31:21.282Z,54.02
2022-11-13T01:33:49.129Z,54.49
2022-11-13T01:36:22.291Z,54.25
2022-11-13T01:38:49.847Z,54.34
2022-11-13T01:41:26.601Z,54.00
2022-11-13T01:43:55.424Z,54.28
2022-11-13T01:46:26.578Z,54.29
2022-11-13T01:49:08.551Z,54.01
2022-11-13T01:51:41.524Z,54.30
2022-11-13T01:54:13.012Z,54.01
2022-11-13T01:56:40.888Z,54.49
2022-11-13T01:59:12.992Z,54.54
2022-11-13T02:01:39.595Z,54.45
2022-11-13T02:04:06.326Z,53.99
2022-11-13T02:06:42.644Z,53.77
2022-11-13T02:09:10.380Z,54.14
2022-11-13T02:11:37.927Z,54.32
2022-11-13T02:14:04.842Z,54.51
2022-11-13T02:16:33.580Z,54.51
2022-11-13T02:19:03.869Z,54.10
2022-11-13T02:22:03.374Z,53.56
2022-11-13T02:24:36.792Z,54.22
2022-11-13T02:27:13.220Z,53.69
2022-11-13T02:29:39.845Z,53.95
2022-11-13T02:32:06.416Z,53.84
2022-11-13T02:34:32.962Z,53.83
2022-11-13T02:36:59.464Z,53.82
2022-11-13T02:39:26.106Z,54.06
2022-11-13T02:41:52.911Z,53.86
2022-11-13T02:44:19.388Z,52.23
2022-11-13T02:46:45.883Z,53.62
2022-11-13T02:49:12.406Z,53.48
2022-11-13T02:51:39.004Z,53.54
2022-11-13T02:54:05.758Z,53.91
2022-11-13T02:56:32.195Z,52.13
2022-11-13T02:58:58.686Z,53.69
2022-11-13T03:01:25.345Z,53.69
2022-11-13T03:03:59.273Z,53.97
2022-11-13T03:06:25.886Z,54.12
2022-11-13T03:08:52.343Z,54.02
2022-11-13T03:11:18.862Z,54.04
2022-11-13T03:13:45.338Z,53.66
2022-11-13T03:16:15.174Z,53.83
2022-11-13T03:18:42.000Z,53.89
2022-11-13T03:21:10.021Z,52.23
2022-11-13T03:23:36.535Z,51.58
2022-11-13T03:26:08.153Z,53.17
2022-11-13T03:28:35.464Z,53.79
2022-11-13T03:31:02.523Z,53.69
2022-11-13T03:33:29.491Z,53.63
2022-11-13T03:35:56.018Z,53.25
2022-11-13T03:38:23.145Z,53.42
2022-11-13T03:40:50.162Z,53.20
2022-11-13T03:43:16.642Z,53.12
2022-11-13T03:45:45.215Z,53.18
2022-11-13T03:48:12.765Z,53.91
2022-11-13T03:50:44.277Z,53.76
2022-11-13T03:53:12.049Z,53.96
2022-11-13T03:55:38.982Z,54.35
2022-11-13T03:58:05.478Z,54.21
2022-11-13T04:00:32.189Z,54.23
2022-11-13T04:02:58.644Z,54.35
2022-11-13T04:05:27.425Z,54.32
2022-11-13T04:07:53.986Z,54.51
2022-11-13T04:10:20.438Z,54.14
2022-11-13T04:12:46.875Z,54.23
2022-11-13T04:15:13.566Z,54.22
2022-11-13T04:17:40.046Z,54.27
2022-11-13T04:20:07.479Z,54.44
2022-11-13T04:22:33.891Z,54.93
2022-11-13T04:25:00.470Z,54.80
2022-11-13T04:27:26.896Z,54.46
2022-11-13T04:29:53.311Z,54.54
2022-11-13T04:32:19.814Z,54.54
2022-11-13T04:34:46.234Z,54.53
2022-11-13T04:37:12.766Z,54.69
2022-11-13T04:39:39.182Z,54.73
2022-11-13T04:42:24.627Z,54.68
2022-11-13T04:44:51.178Z,54.56
2022-11-13T04:47:17.611Z,54.59
2022-11-13T04:49:44.026Z,54.47
2022-11-13T04:52:10.494Z,54.53
2022-11-13T04:54:36.957Z,54.57
2022-11-13T04:57:03.462Z,54.52
2022-11-13T04:59:29.984Z,54.52
2022-11-13T05:01:57.037Z,54.52
2022-11-13T05:04:23.763Z,54.52
2022-11-13T05:06:50.320Z,54.45
2022-11-13T05:09:17.976Z,54.53
2022-11-13T05:11:44.423Z,54.38
2022-11-13T05:14:13.929Z,54.45
2022-11-13T05:16:40.412Z,54.73
2022-11-13T05:19:07.083Z,54.82
2022-11-13T05:21:37.695Z,54.83
2022-11-13T05:24:05.391Z,54.87
2022-11-13T05:26:31.931Z,54.97
2022-11-13T05:28:59.875Z,54.64
2022-11-13T05:31:27.331Z,54.75
2022-11-13T05:33:54.931Z,54.85
2022-11-13T05:36:22.778Z,54.56
2022-11-13T05:38:49.491Z,54.58
2022-11-13T05:41:21.512Z,54.26
2022-11-13T05:43:49.028Z,54.61
2022-11-13T05:46:23.587Z,54.47
2022-11-13T05:49:01.057Z,54.55
2022-11-13T05:51:30.460Z,54.40
2022-11-13T05:53:57.627Z,54.38
2022-11-13T05:56:35.763Z,54.52
2022-11-13T05:59:02.217Z,54.23
2022-11-13T06:01:30.658Z,54.26
2022-11-13T06:03:58.976Z,54.19
2022-11-13T06:06:27.364Z,54.34
2022-11-13T06:08:55.783Z,54.33
2022-11-13T06:11:24.600Z,53.94
2022-11-13T06:13:52.644Z,54.32
2022-11-13T06:16:26.587Z,54.17
2022-11-13T06:19:01.284Z,54.09
2022-11-13T06:21:30.508Z,54.41
2022-11-13T06:23:58.240Z,54.43
2022-11-13T06:26:36.431Z,54.05
2022-11-13T06:29:05.127Z,54.33
2022-11-13T06:31:34.688Z,54.37
2022-11-13T06:34:01.984Z,54.17
2022-11-13T06:36:33.849Z,54.21
2022-11-13T06:39:01.129Z,54.00
2022-11-13T06:41:31.256Z,54.39
2022-11-13T06:44:02.689Z,54.06
2022-11-13T06:46:30.530Z,54.50
2022-11-13T06:48:57.507Z,54.28
2022-11-13T06:51:26.858Z,54.26
2022-11-13T06:53:53.876Z,54.49
2022-11-13T06:56:20.993Z,54.66
2022-11-13T06:58:47.563Z,55.13
2022-11-13T07:01:24.746Z,54.32
2022-11-13T07:03:51.326Z,54.96
2022-11-13T07:06:21.369Z,55.46
2022-11-13T07:08:48.354Z,55.66
2022-11-13T07:11:20.602Z,55.79
2022-11-13T07:13:47.191Z,56.38
2022-11-13T07:16:17.789Z,56.08
2022-11-13T07:18:49.866Z,56.26
2022-11-13T07:21:16.415Z,56.19
2022-11-13T07:23:43.759Z,56.12
2022-11-13T07:26:11.077Z,56.20
2022-11-13T07:28:38.471Z,56.26
2022-11-13T07:31:07.418Z,56.01
2022-11-13T07:33:34.201Z,56.16
2022-11-13T07:36:00.699Z,53.91
2022-11-13T07:38:27.563Z,54.96
2022-11-13T07:40:54.331Z,54.87
2022-11-13T07:43:20.836Z,54.40
2022-11-13T07:45:47.415Z,54.31
2022-11-13T07:48:13.959Z,62.60
2022-11-13T07:50:40.550Z,66.27
2022-11-13T07:53:08.693Z,68.26
2022-11-13T07:55:36.221Z,69.63
2022-11-13T07:58:03.776Z,70.10
2022-11-13T08:00:32.061Z,68.26
2022-11-13T08:02:59.671Z,62.40
2022-11-13T08:05:26.253Z,61.99
2022-11-13T08:07:53.045Z,59.46
2022-11-13T08:10:20.277Z,57.53
2022-11-13T08:12:47.447Z,53.86
2022-11-13T08:15:14.517Z,50.88
2022-11-13T08:17:41.800Z,50.46
2022-11-13T08:20:09.243Z,49.38
2022-11-13T08:22:35.958Z,49.92
2022-11-13T08:25:02.418Z,52.37
2022-11-13T08:27:29.166Z,48.12
2022-11-13T08:29:55.742Z,51.21
2022-11-13T08:32:22.683Z,47.58
2022-11-13T08:34:49.501Z,47.95
2022-11-13T08:37:16.203Z,50.33
2022-11-13T08:39:42.846Z,48.02
2022-11-13T08:42:09.344Z,47.54
2022-11-13T08:44:35.942Z,47.67
2022-11-13T08:47:02.553Z,48.16
2022-11-13T08:49:29.138Z,47.98
2022-11-13T08:51:55.727Z,48.08
2022-11-13T08:54:22.172Z,47.76
2022-11-13T08:56:54.626Z,48.40
2022-11-13T08:59:27.234Z,48.03
2022-11-13T09:01:59.323Z,47.69
2022-11-13T09:04:26.532Z,47.80
2022-11-13T09:06:53.642Z,46.92
2022-11-13T09:09:20.977Z,46.32
2022-11-13T09:11:47.532Z,46.17
2022-11-13T09:14:14.361Z,45.63
2022-11-13T09:16:41.305Z,45.67
2022-11-13T09:19:07.986Z,46.08
2022-11-13T09:21:34.368Z,48.84
2022-11-13T09:24:00.873Z,45.56
2022-11-13T09:26:27.341Z,45.36
2022-11-13T09:28:53.908Z,45.07
2022-11-13T09:31:20.436Z,44.61
2022-11-13T09:33:46.973Z,44.93
2022-11-13T09:36:15.490Z,44.92
2022-11-13T09:38:42.365Z,44.25
2022-11-13T09:41:15.638Z,44.51
2022-11-13T09:43:47.680Z,45.04
2022-11-13T09:46:20.216Z,44.60
2022-11-13T09:49:02.612Z,45.24
2022-11-13T09:51:33.056Z,43.90
2022-11-13T09:54:05.240Z,43.59
2022-11-13T09:56:39.828Z,43.87
2022-11-13T09:59:22.451Z,44.69
2022-11-13T10:02:12.282Z,44.49
2022-11-13T10:05:00.412Z,44.52
2022-11-13T10:07:41.065Z,44.36
2022-11-13T10:10:35.977Z,44.15
2022-11-13T10:13:04.959Z,42.87
2022-11-13T10:15:31.885Z,42.43
2022-11-13T10:18:18.587Z,43.89
2022-11-13T10:20:57.961Z,41.97
2022-11-13T10:23:30.434Z,41.93
2022-11-13T10:26:05.513Z,40.52
2022-11-13T10:31:18.845Z,40.58
2022-11-13T10:33:45.377Z,40.22
2022-11-13T10:36:24.384Z,44.25
2022-11-13T10:38:59.765Z,41.04
2022-11-13T10:41:26.356Z,39.01
2022-11-13T10:44:05.493Z,43.70
2022-11-13T10:46:33.172Z,39.46
2022-11-13T10:49:13.464Z,41.32
2022-11-13T10:51:40.020Z,39.87
2022-11-13T10:54:29.859Z,43.26
2022-11-13T10:57:05.420Z,40.63
2022-11-13T10:59:40.817Z,40.67
2022-11-13T11:02:20.566Z,40.90
2022-11-13T11:04:47.560Z,39.12
2022-11-13T11:07:20.682Z,38.92
2022-11-13T11:09:48.894Z,38.15
2022-11-13T11:12:30.153Z,39.68
2022-11-13T11:15:01.772Z,38.78
2022-11-13T11:17:43.636Z,40.52
2022-11-13T11:20:22.057Z,40.17
2022-11-13T11:22:58.947Z,39.56
2022-11-13T11:25:34.594Z,39.51
2022-11-13T11:28:09.896Z,39.12
2022-11-13T11:30:47.035Z,38.28
2022-11-13T11:33:23.196Z,41.76
2022-11-13T11:36:00.816Z,39.39
2022-11-13T11:38:36.529Z,38.46
2022-11-13T11:41:15.029Z,38.47
2022-11-13T11:43:51.591Z,38.71
2022-11-13T11:46:23.847Z,38.62
2022-11-13T11:48:51.252Z,38.17
2022-11-13T11:52:05.616Z,40.14
2022-11-13T11:54:43.969Z,38.29
2022-11-13T11:57:31.766Z,40.07
2022-11-13T12:00:04.717Z,39.54
2022-11-13T12:03:10.448Z,40.60
2022-11-13T12:06:02.894Z,39.49
2022-11-13T12:08:57.147Z,40.68
2022-11-13T12:11:33.675Z,40.36
2022-11-13T12:14:23.526Z,40.70
2022-11-13T12:17:17.507Z,40.37
2022-11-13T12:19:49.749Z,39.90
2022-11-13T12:22:46.527Z,40.06
2022-11-13T12:25:26.629Z,40.96
2022-11-13T12:28:20.348Z,41.01
2022-11-13T12:31:05.186Z,40.51
2022-11-13T12:33:44.937Z,40.14
2022-11-13T12:36:13.869Z,39.65
2022-11-13T12:39:00.562Z,40.57
2022-11-13T12:41:49.277Z,40.88
2022-11-13T12:44:27.439Z,40.40
2022-11-13T12:46:56.197Z,40.39
2022-11-13T12:49:22.641Z,40.09
2022-11-13T12:51:54.958Z,40.69
2022-11-13T12:54:34.780Z,41.15
2022-11-13T12:57:13.401Z,41.48
2022-11-13T12:59:43.714Z,41.14
2022-11-13T13:02:40.845Z,41.30
2022-11-13T13:05:14.157Z,40.80
2022-11-13T13:08:05.247Z,41.02
2022-11-13T13:10:59.509Z,41.56
2022-11-13T13:13:45.698Z,42.01
2022-11-13T13:16:29.672Z,42.06
2022-11-13T13:19:20.969Z,42.30
2022-11-13T13:21:47.681Z,43.32
2022-11-13T13:24:26.521Z,42.34
2022-11-13T13:26:53.099Z,43.57
2022-11-13T13:29:23.842Z,42.94
2022-11-13T13:32:26.387Z,43.73
2022-11-13T13:35:03.827Z,44.39
2022-11-13T13:38:05.840Z,44.45
2022-11-13T13:40:35.439Z,45.81
2022-11-13T13:43:56.214Z,45.08
2022-11-13T13:46:26.018Z,46.52
2022-11-13T13:48:56.835Z,46.83
2022-11-13T13:51:43.520Z,46.30
2022-11-13T13:54:15.214Z,47.91
2022-11-13T13:56:42.715Z,48.20
2022-11-13T13:59:19.624Z,47.75
2022-11-13T14:01:58.613Z,47.53
2022-11-13T14:04:32.875Z,48.41
2022-11-13T14:07:01.942Z,48.92
2022-11-13T14:09:30.798Z,49.04
2022-11-13T14:12:00.682Z,49.59
2022-11-13T14:14:29.038Z,49.70
2022-11-13T14:17:01.738Z,49.66
2022-11-13T14:19:28.432Z,50.19
2022-11-13T14:22:00.270Z,47.44
2022-11-13T14:24:34.139Z,50.31
2022-11-13T14:27:05.782Z,50.51
2022-11-13T14:29:39.271Z,50.91
2022-11-13T14:32:44.284Z,49.58
2022-11-13T14:35:22.239Z,50.75
2022-11-13T14:37:49.242Z,52.19
2022-11-13T14:40:25.495Z,51.39
2022-11-13T14:43:05.449Z,51.46
2022-11-13T14:45:33.316Z,52.50
2022-11-13T14:48:01.108Z,52.79
2022-11-13T14:50:34.103Z,53.09
2022-11-13T14:53:06.818Z,52.69
2022-11-13T14:55:37.681Z,53.58
2022-11-13T14:58:05.454Z,53.89
2022-11-13T15:00:35.949Z,53.79
2022-11-13T15:03:04.778Z,53.89
2022-11-13T15:05:31.544Z,54.35
2022-11-13T15:07:58.120Z,50.64
2022-11-13T15:10:27.852Z,54.04
2022-11-13T15:12:54.593Z,54.64
2022-11-13T15:15:23.766Z,50.55
2022-11-13T15:17:52.051Z,54.70
2022-11-13T15:20:22.969Z,54.61
2022-11-13T15:22:52.443Z,55.21
2022-11-13T15:25:21.809Z,55.39
2022-11-13T15:27:48.804Z,55.40
2022-11-13T15:30:17.009Z,55.74
2022-11-13T15:32:43.753Z,56.09
2022-11-13T15:35:20.153Z,51.78
2022-11-13T15:37:46.878Z,55.66
2022-11-13T15:40:14.268Z,51.63
2022-11-13T15:42:41.410Z,55.90
2022-11-13T15:45:14.178Z,55.57
2022-11-13T15:47:41.083Z,56.51
2022-11-13T15:50:16.105Z,56.47
2022-11-13T15:52:46.893Z,56.89
2022-11-13T15:55:25.266Z,56.34
2022-11-13T15:57:52.671Z,57.08
2022-11-13T16:00:25.254Z,56.97
2022-11-13T16:02:56.614Z,56.65
2022-11-13T16:05:25.484Z,57.46
2022-11-13T16:07:56.095Z,57.13
2022-11-13T16:10:25.317Z,57.56
2022-11-13T16:12:52.731Z,57.37
2022-11-13T16:15:19.985Z,57.33
2022-11-13T16:17:49.450Z,57.58
2022-11-13T16:20:17.922Z,57.46
2022-11-13T16:22:44.748Z,57.22
2022-11-13T16:25:12.510Z,53.68
2022-11-13T16:27:39.821Z,57.03
2022-11-13T16:30:09.896Z,57.00
2022-11-13T16:32:38.686Z,57.41
2022-11-13T16:35:05.600Z,57.65
2022-11-13T16:37:32.132Z,57.82
2022-11-13T16:39:58.765Z,57.48
2022-11-13T16:42:30.697Z,57.94
2022-11-13T16:44:57.501Z,58.10
2022-11-13T16:47:25.998Z,58.20
2022-11-13T16:49:52.778Z,58.26
2022-11-13T16:52:19.265Z,54.33
2022-11-13T16:54:45.936Z,57.77
2022-11-13T16:57:14.022Z,58.26
2022-11-13T16:59:40.884Z,58.25
2022-11-13T17:02:15.717Z,57.50
2022-11-13T17:04:43.137Z,58.58
2022-11-13T17:07:13.174Z,58.16
2022-11-13T17:09:44.023Z,58.52
2022-11-13T17:12:11.393Z,58.59
2022-11-13T17:14:38.899Z,58.74
2022-11-13T17:17:07.290Z,58.23
2022-11-13T17:19:33.950Z,58.35
2022-11-13T17:22:00.783Z,58.45
2022-11-13T17:24:27.383Z,58.62
2022-11-13T17:26:54.157Z,54.83
2022-11-13T17:29:20.683Z,58.17
2022-11-13T17:31:47.328Z,57.96
2022-11-13T17:34:13.875Z,58.04
2022-11-13T17:36:40.401Z,58.46
2022-11-13T17:39:06.959Z,58.20
2022-11-13T17:41:34.225Z,58.11
2022-11-13T17:44:01.456Z,58.80
2022-11-13T17:46:28.350Z,58.74
2022-11-13T17:48:55.109Z,58.81
2022-11-13T17:51:21.524Z,55.02
2022-11-13T17:53:48.098Z,58.57
2022-11-13T17:56:15.238Z,58.79
2022-11-13T17:58:43.508Z,59.23
2022-11-13T18:01:21.860Z,58.41
2022-11-13T18:03:54.480Z,58.37
2022-11-13T18:06:21.841Z,59.25
2022-11-13T18:08:48.381Z,59.36
2022-11-13T18:11:25.241Z,58.41
2022-11-13T18:13:52.808Z,58.75
2022-11-13T18:16:25.756Z,58.46
2022-11-13T18:18:55.528Z,58.83
2022-11-13T18:21:34.362Z,58.70
2022-11-13T18:24:10.107Z,58.57
2022-11-13T18:26:36.845Z,58.67
2022-11-13T18:29:03.664Z,55.89
2022-11-13T18:31:30.589Z,58.46
2022-11-13T18:34:02.580Z,58.28
2022-11-13T18:36:29.281Z,58.56
2022-11-13T18:38:56.213Z,55.92
2022-11-13T18:41:23.722Z,58.49
2022-11-13T18:43:51.820Z,58.66
2022-11-13T18:46:20.419Z,58.92
2022-11-13T18:48:47.757Z,58.88
2022-11-13T18:51:18.704Z,59.04
2022-11-13T18:53:48.446Z,58.91
2022-11-13T18:56:20.602Z,58.85
2022-11-13T18:58:48.501Z,58.81
2022-11-13T19:01:22.311Z,58.97
2022-11-13T19:04:16.157Z,59.21
2022-11-13T19:06:38.549Z,59.16
2022-11-13T19:09:08.226Z,59.21
2022-11-13T19:11:34.861Z,59.23
2022-11-13T19:14:02.158Z,59.27
2022-11-13T19:16:35.825Z,59.04
2022-11-13T19:19:06.019Z,59.03
2022-11-13T19:21:34.811Z,59.23
2022-11-13T19:24:02.623Z,59.41
2022-11-13T19:26:29.301Z,59.30
2022-11-13T19:28:56.116Z,56.50
2022-11-13T19:31:25.339Z,59.15
2022-11-13T19:33:59.729Z,59.09
2022-11-13T19:36:28.382Z,59.36
2022-11-13T19:38:57.892Z,59.17
2022-11-13T19:41:26.205Z,59.35
2022-11-13T19:43:52.812Z,59.81
2022-11-13T19:46:20.300Z,59.79
2022-11-13T19:48:50.457Z,59.37
2022-11-13T19:51:23.133Z,59.56
2022-11-13T19:53:54.957Z,59.15
2022-11-13T19:56:23.044Z,59.86
2022-11-13T19:58:51.283Z,59.67
2022-11-13T20:01:23.560Z,59.48
2022-11-13T20:03:57.365Z,59.36
2022-11-13T20:06:24.442Z,59.59
2022-11-13T20:08:51.039Z,59.45
2022-11-13T20:11:17.737Z,59.80
2022-11-13T20:13:44.574Z,59.47
2022-11-13T20:16:12.310Z,56.85
2022-11-13T20:18:39.361Z,59.06
2022-11-13T20:21:06.247Z,59.53
2022-11-13T20:23:33.358Z,59.61
2022-11-13T20:26:03.096Z,59.84
2022-11-13T20:28:31.563Z,59.85
2022-11-13T20:31:05.365Z,59.39
2022-11-13T20:33:33.404Z,59.51
2022-11-13T20:36:00.246Z,59.59
2022-11-13T20:38:27.642Z,60.03
2022-11-13T20:40:54.495Z,59.74
2022-11-13T20:43:21.373Z,59.77
2022-11-13T20:45:47.818Z,56.78
2022-11-13T20:48:14.408Z,59.48
2022-11-13T20:50:41.322Z,59.48
2022-11-13T20:53:08.024Z,59.42
2022-11-13T20:55:34.591Z,59.70
2022-11-13T20:58:01.093Z,59.71
2022-11-13T21:00:27.614Z,59.56
2022-11-13T21:02:54.125Z,59.47
2022-11-13T21:05:20.681Z,59.45
2022-11-13T21:07:47.285Z,59.61
2022-11-13T21:10:13.857Z,59.54
2022-11-13T21:12:40.388Z,59.92
2022-11-13T21:15:07.393Z,59.51
2022-11-13T21:17:33.867Z,59.65
2022-11-13T21:20:00.536Z,59.49
2022-11-13T21:22:27.067Z,59.74
2022-11-13T21:24:53.778Z,59.70
2022-11-13T21:27:20.284Z,59.49
2022-11-13T21:29:46.788Z,59.40
2022-11-13T21:32:13.228Z,59.65
2022-11-13T21:34:39.882Z,59.57
2022-11-13T21:37:07.705Z,59.55
2022-11-13T21:39:34.733Z,59.62
2022-11-13T21:42:01.243Z,59.77
2022-11-13T21:44:27.708Z,59.39
2022-11-13T21:46:54.369Z,59.56
2022-11-13T21:49:20.865Z,56.97
2022-11-13T21:51:47.385Z,59.38
2022-11-13T21:54:14.105Z,59.17
2022-11-13T21:56:42.056Z,59.63
